createdAt,value
2023-05-05T00:01:07.906Z,7.88
2023-05-05T00:06:11.109Z,7.90
2023-05-05T00:11:13.968Z,7.95
2023-05-05T00:16:17.590Z,8.01
2023-05-05T00:21:20.595Z,8.03
2023-05-05T00:26:23.532Z,8.03
2023-05-05T00:31:27.057Z,8.03
2023-05-05T00:36:30.595Z,8.03
2023-05-05T00:41:33.530Z,8.02
2023-05-05T00:46:36.625Z,7.97
2023-05-05T00:51:39.461Z,7.92
2023-05-05T00:56:42.392Z,7.90
2023-05-05T01:01:46.292Z,7.90
2023-05-05T01:07:10.674Z,7.91
2023-05-05T01:12:37.732Z,7.91
2023-05-05T01:17:47.658Z,7.88
2023-05-05T01:23:01.504Z,7.89
2023-05-05T01:28:31.486Z,7.90
2023-05-05T01:33:37.879Z,7.91
2023-05-05T01:38:42.578Z,7.91
2023-05-05T01:43:48.553Z,7.93
2023-05-05T01:48:52.113Z,7.95
2023-05-05T01:54:00.176Z,7.99
2023-05-05T01:59:03.149Z,8.01
2023-05-05T02:04:06.343Z,8.02
2023-05-05T02:09:12.295Z,8.02
2023-05-05T02:14:15.243Z,8.02
2023-05-05T02:19:19.289Z,8.02
2023-05-05T02:24:22.181Z,7.99
2023-05-05T02:30:07.432Z,7.97
2023-05-05T02:35:21.096Z,7.97
2023-05-05T02:40:24.629Z,7.95
2023-05-05T02:45:27.474Z,7.96
2023-05-05T02:50:31.973Z,8.00
2023-05-05T02:55:43.841Z,8.02
2023-05-05T03:01:22.215Z,8.05
2023-05-05T03:06:25.335Z,8.09
2023-05-05T03:11:33.238Z,8.11
2023-05-05T03:16:36.979Z,8.16
2023-05-05T03:21:40.650Z,8.21
2023-05-05T03:26:44.212Z,8.26
2023-05-05T03:31:47.291Z,8.32
2023-05-05T03:36:50.125Z,8.37
2023-05-05T03:41:53.073Z,8.44
2023-05-05T03:46:56.016Z,8.51
2023-05-05T03:51:58.975Z,8.59
2023-05-05T03:57:02.568Z,8.69
2023-05-05T04:02:24.064Z,8.79
2023-05-05T04:07:28.257Z,8.86
2023-05-05T04:12:31.112Z,8.93
2023-05-05T04:17:34.106Z,9.05
2023-05-05T04:22:37.150Z,9.20
2023-05-05T04:27:40.108Z,9.37
2023-05-05T04:32:43.103Z,9.52
2023-05-05T04:37:46.183Z,9.70
2023-05-05T04:42:49.146Z,9.82
2023-05-05T04:47:52.085Z,9.79
2023-05-05T04:52:54.951Z,9.72
2023-05-05T04:57:57.958Z,9.75
2023-05-05T05:03:01.036Z,9.80
2023-05-05T05:08:04.429Z,9.93
2023-05-05T05:13:07.856Z,10.10
2023-05-05T05:18:10.771Z,10.21
2023-05-05T05:23:13.986Z,10.27
2023-05-05T05:28:16.916Z,10.31
2023-05-05T05:33:20.083Z,10.35
2023-05-05T05:38:23.121Z,10.39
2023-05-05T05:43:25.994Z,10.42
2023-05-05T05:48:29.461Z,10.51
2023-05-05T05:53:32.862Z,10.63
2023-05-05T05:58:35.810Z,10.76
2023-05-05T06:03:38.721Z,10.90
2023-05-05T06:08:41.603Z,11.01
2023-05-05T06:13:44.456Z,11.14
2023-05-05T06:18:47.579Z,11.31
2023-05-05T06:23:51.054Z,11.47
2023-05-05T06:28:53.985Z,11.67
2023-05-05T06:33:56.929Z,11.86
2023-05-05T06:38:59.885Z,12.04
2023-05-05T06:44:02.859Z,12.20
2023-05-05T06:49:05.678Z,12.34
2023-05-05T06:54:08.673Z,12.49
2023-05-05T06:59:12.120Z,12.62
2023-05-05T07:04:15.047Z,12.76
2023-05-05T07:09:18.728Z,12.93
2023-05-05T07:14:24.402Z,13.09
2023-05-05T07:19:27.572Z,13.30
2023-05-05T07:24:30.566Z,13.50
2023-05-05T07:29:33.531Z,13.66
2023-05-05T07:34:38.164Z,13.80
2023-05-05T07:39:41.472Z,13.93
2023-05-05T07:44:44.371Z,14.11
2023-05-05T07:49:47.325Z,14.22
2023-05-05T07:54:50.426Z,14.36
2023-05-05T07:59:53.326Z,14.46
2023-05-05T08:04:56.172Z,14.56
2023-05-05T08:09:59.051Z,14.70
2023-05-05T08:15:02.057Z,14.89
2023-05-05T08:20:05.733Z,15.03
2023-05-05T08:25:11.251Z,15.11
2023-05-05T08:30:14.353Z,15.24
2023-05-05T08:35:18.085Z,15.36
2023-05-05T08:40:22.171Z,15.50
2023-05-05T08:45:25.248Z,15.67
2023-05-05T08:50:29.257Z,15.77
2023-05-05T08:55:35.463Z,15.90
2023-05-05T09:00:39.420Z,16.26
2023-05-05T09:05:45.507Z,16.88
2023-05-05T09:10:49.151Z,17.42
2023-05-05T09:15:53.639Z,17.66
2023-05-05T09:20:58.827Z,17.80
2023-05-05T09:26:08.060Z,18.12
2023-05-05T09:31:16.097Z,18.40
2023-05-05T09:36:19.332Z,18.64
2023-05-05T09:41:37.760Z,18.97
2023-05-05T09:46:52.848Z,19.37
2023-05-05T09:51:57.426Z,19.82
2023-05-05T09:57:00.372Z,20.29
2023-05-05T10:02:13.358Z,21.07
2023-05-05T10:07:26.800Z,21.78
2023-05-05T10:12:29.773Z,22.25
2023-05-05T10:17:36.525Z,22.04
2023-05-05T10:22:39.454Z,22.67
2023-05-05T10:27:54.869Z,23.67
2023-05-05T10:33:35.218Z,23.89
2023-05-05T10:38:38.264Z,24.33
2023-05-05T10:43:41.751Z,24.53
2023-05-05T10:48:56.729Z,25.32
2023-05-05T10:54:47.561Z,25.57
2023-05-05T10:59:50.598Z,26.07
2023-05-05T11:05:18.071Z,24.82
2023-05-05T11:10:23.113Z,24.46
2023-05-05T11:15:31.661Z,24.54
2023-05-05T11:20:40.395Z,24.77
2023-05-05T11:25:44.699Z,25.97
2023-05-05T11:30:57.832Z,27.63
2023-05-05T11:36:12.154Z,28.87
2023-05-05T11:41:52.385Z,28.38
2023-05-05T11:47:00.178Z,28.01
2023-05-05T11:52:03.798Z,28.79
2023-05-05T11:57:08.347Z,29.39
2023-05-05T12:02:11.207Z,27.94
2023-05-05T12:07:28.156Z,26.62
2023-05-05T12:12:40.815Z,26.94
2023-05-05T12:17:46.256Z,28.07
2023-05-05T12:22:49.191Z,27.32
2023-05-05T12:27:53.048Z,26.60
2023-05-05T12:33:06.779Z,27.19
2023-05-05T12:38:10.489Z,26.84
2023-05-05T12:43:27.878Z,26.76
2023-05-05T12:48:31.051Z,26.38
2023-05-05T12:53:33.980Z,26.91
2023-05-05T12:58:49.194Z,26.57
2023-05-05T13:04:14.035Z,24.66
2023-05-05T13:09:30.692Z,23.60
2023-05-05T13:14:33.730Z,23.39
2023-05-05T13:19:42.016Z,22.58
2023-05-05T13:24:51.623Z,22.13
2023-05-05T13:29:55.931Z,21.97
2023-05-05T13:34:58.863Z,22.35
2023-05-05T13:40:01.714Z,22.90
2023-05-05T13:45:05.571Z,24.22
2023-05-05T13:50:08.883Z,27.14
2023-05-05T13:55:11.768Z,28.92
2023-05-05T14:00:16.070Z,29.76
2023-05-05T14:05:19.391Z,30.74
2023-05-05T14:10:22.432Z,32.56
2023-05-05T14:15:25.349Z,32.19
2023-05-05T14:20:28.320Z,29.77
2023-05-05T14:25:31.355Z,27.23
2023-05-05T14:30:34.338Z,25.12
2023-05-05T14:35:37.574Z,23.32
2023-05-05T14:40:40.748Z,23.30
2023-05-05T14:45:44.326Z,21.89
2023-05-05T14:50:48.504Z,20.75
2023-05-05T14:55:51.422Z,19.84
2023-05-05T15:00:54.789Z,19.34
2023-05-05T15:05:57.820Z,19.65
2023-05-05T15:11:00.908Z,19.66
2023-05-05T15:16:04.108Z,19.46
2023-05-05T15:21:07.038Z,19.43
2023-05-05T15:26:09.956Z,19.21
2023-05-05T15:31:13.005Z,18.94
2023-05-05T15:36:17.596Z,18.86
2023-05-05T15:41:20.602Z,18.79
2023-05-05T15:46:23.632Z,18.42
2023-05-05T15:51:26.612Z,17.78
2023-05-05T15:56:29.748Z,17.58
2023-05-05T16:01:33.635Z,17.54
2023-05-05T16:06:36.788Z,17.21
2023-05-05T16:11:39.761Z,16.84
2023-05-05T16:16:42.784Z,16.50
2023-05-05T16:21:46.275Z,16.12
2023-05-05T16:26:49.121Z,15.79
2023-05-05T16:31:52.028Z,15.62
2023-05-05T16:36:54.984Z,15.57
2023-05-05T16:41:57.800Z,15.48
2023-05-05T16:47:01.196Z,15.34
2023-05-05T16:52:04.306Z,15.19
2023-05-05T16:57:07.187Z,14.96
2023-05-05T17:02:10.115Z,14.72
2023-05-05T17:07:13.065Z,14.43
2023-05-05T17:12:15.935Z,14.13
2023-05-05T17:17:18.784Z,13.87
2023-05-05T17:22:21.945Z,13.65
2023-05-05T17:27:24.948Z,13.44
2023-05-05T17:32:27.956Z,13.24
2023-05-05T17:37:31.284Z,13.09
2023-05-05T17:42:34.253Z,12.95
2023-05-05T17:47:37.415Z,12.79
2023-05-05T17:52:41.171Z,12.61
2023-05-05T17:57:44.095Z,12.43
2023-05-05T18:02:47.006Z,12.24
2023-05-05T18:07:50.255Z,12.09
2023-05-05T18:12:53.237Z,11.92
2023-05-05T18:17:56.255Z,11.78
2023-05-05T18:22:59.157Z,11.66
2023-05-05T18:28:02.064Z,11.57
2023-05-05T18:33:05.154Z,11.48
2023-05-05T18:38:08.116Z,11.41
2023-05-05T18:43:11.216Z,11.34
2023-05-05T18:48:14.083Z,11.29
2023-05-05T18:53:17.788Z,11.23
2023-05-05T18:58:21.404Z,11.18
2023-05-05T19:03:24.266Z,11.14
2023-05-05T19:08:27.235Z,11.12
2023-05-05T19:13:30.169Z,11.07
2023-05-05T19:18:33.654Z,11.04
2023-05-05T19:23:38.175Z,10.99
2023-05-05T19:28:41.093Z,10.90
2023-05-05T19:33:45.709Z,10.84
2023-05-05T19:38:48.645Z,10.79
2023-05-05T19:43:51.812Z,10.75
2023-05-05T19:48:54.732Z,10.68
2023-05-05T19:53:57.585Z,10.63
2023-05-05T19:59:02.015Z,10.61
2023-05-05T20:04:04.958Z,10.60
2023-05-05T20:09:08.070Z,10.56
2023-05-05T20:14:10.916Z,10.53
2023-05-05T20:19:14.014Z,10.50
2023-05-05T20:24:17.353Z,10.46
2023-05-05T20:29:20.337Z,10.37
2023-05-05T20:34:25.190Z,10.31
2023-05-05T20:39:28.146Z,10.25
2023-05-05T20:44:31.483Z,10.20
2023-05-05T20:49:34.746Z,10.16
2023-05-05T20:54:39.055Z,10.13
2023-05-05T20:59:41.946Z,10.09
2023-05-05T21:04:44.963Z,10.03
2023-05-05T21:09:47.952Z,9.99
2023-05-05T21:14:51.018Z,9.96
2023-05-05T21:19:53.945Z,9.89
2023-05-05T21:25:16.949Z,9.85
2023-05-05T21:30:19.780Z,9.81
2023-05-05T21:35:22.625Z,9.79
2023-05-05T21:40:26.112Z,9.80
2023-05-05T21:45:29.135Z,9.76
2023-05-05T21:50:32.121Z,9.74
2023-05-05T21:55:35.272Z,9.72
2023-05-05T22:00:38.150Z,9.70
2023-05-05T22:05:41.187Z,9.67
2023-05-05T22:10:44.089Z,9.64
2023-05-05T22:15:47.620Z,9.58
2023-05-05T22:20:51.433Z,9.52
2023-05-05T22:25:54.458Z,9.43
2023-05-05T22:30:57.442Z,9.30
2023-05-05T22:36:00.787Z,9.19
2023-05-05T22:41:03.815Z,9.05
2023-05-05T22:46:06.751Z,8.94
2023-05-05T22:51:09.589Z,8.86
2023-05-05T22:56:12.528Z,8.75
2023-05-05T23:01:15.522Z,8.64
2023-05-05T23:06:18.568Z,8.56
2023-05-05T23:11:21.500Z,8.46
2023-05-05T23:16:24.434Z,8.37
2023-05-05T23:21:29.212Z,8.27
2023-05-05T23:26:32.311Z,8.15
2023-05-05T23:31:35.173Z,8.04
2023-05-05T23:36:38.118Z,7.94
2023-05-05T23:41:40.972Z,7.87
2023-05-05T23:46:43.857Z,7.79
2023-05-05T23:51:46.767Z,7.72
2023-05-05T23:56:49.601Z,7.67
